createdAt,value
2023-04-08T00:01:20.420Z,59.90
2023-04-08T00:03:48.420Z,60.28
2023-04-08T00:06:16.240Z,60.31
2023-04-08T00:08:43.874Z,60.21
2023-04-08T00:11:11.567Z,60.52
2023-04-08T00:13:39.184Z,60.17
2023-04-08T00:16:07.937Z,60.57
2023-04-08T00:18:38.151Z,59.95
2023-04-08T00:21:05.925Z,59.63
2023-04-08T00:23:33.518Z,60.00
2023-04-08T00:26:01.115Z,60.12
2023-04-08T00:28:28.715Z,60.26
2023-04-08T00:30:56.382Z,60.30
2023-04-08T00:33:25.673Z,60.58
2023-04-08T00:35:54.692Z,60.98
2023-04-08T00:38:22.319Z,60.71
2023-04-08T00:40:50.018Z,60.72
2023-04-08T00:43:20.760Z,60.67
2023-04-08T00:45:48.486Z,60.57
2023-04-08T00:48:16.263Z,60.80
2023-04-08T00:50:44.774Z,60.67
2023-04-08T00:53:14.472Z,60.71
2023-04-08T00:55:42.346Z,60.85
2023-04-08T00:58:10.126Z,60.69
2023-04-08T01:00:43.010Z,60.85
2023-04-08T01:03:16.076Z,61.11
2023-04-08T01:05:54.897Z,61.04
2023-04-08T01:08:27.915Z,60.79
2023-04-08T01:11:02.039Z,61.17
2023-04-08T01:13:32.364Z,60.92
2023-04-08T01:16:00.114Z,61.15
2023-04-08T01:18:28.031Z,61.16
2023-04-08T01:20:56.266Z,60.60
2023-04-08T01:23:34.139Z,60.91
2023-04-08T01:26:03.120Z,61.10
2023-04-08T01:28:32.252Z,60.77
2023-04-08T01:31:03.183Z,61.07
2023-04-08T01:33:32.504Z,61.02
2023-04-08T01:36:01.893Z,61.21
2023-04-08T01:38:30.843Z,60.93
2023-04-08T01:40:58.997Z,60.80
2023-04-08T01:43:28.785Z,61.02
2023-04-08T01:45:58.467Z,61.08
2023-04-08T01:48:26.944Z,61.15
2023-04-08T01:50:56.760Z,60.41
2023-04-08T01:53:24.646Z,60.77
2023-04-08T01:55:57.673Z,60.58
2023-04-08T01:58:27.381Z,60.76
2023-04-08T02:00:58.959Z,60.35
2023-04-08T02:03:28.867Z,60.71
2023-04-08T02:05:56.770Z,61.04
2023-04-08T02:08:24.391Z,60.74
2023-04-08T02:10:52.549Z,60.71
2023-04-08T02:13:20.338Z,60.59
2023-04-08T02:15:54.985Z,60.61
2023-04-08T02:18:27.478Z,60.80
2023-04-08T02:21:03.445Z,60.87
2023-04-08T02:23:36.310Z,60.91
2023-04-08T02:26:09.217Z,60.89
2023-04-08T02:28:37.782Z,60.63
2023-04-08T02:31:09.461Z,60.66
2023-04-08T02:33:40.351Z,60.75
2023-04-08T02:36:09.426Z,61.04
2023-04-08T02:38:37.076Z,61.26
2023-04-08T02:41:04.945Z,61.02
2023-04-08T02:43:32.776Z,60.45
2023-04-08T02:46:03.433Z,60.42
2023-04-08T02:48:31.676Z,60.86
2023-04-08T02:51:00.654Z,61.11
2023-04-08T02:53:28.273Z,61.36
2023-04-08T02:55:56.182Z,60.79
2023-04-08T02:58:23.830Z,60.78
2023-04-08T03:00:51.448Z,60.90
2023-04-08T03:03:19.214Z,60.55
2023-04-08T03:05:46.967Z,61.30
2023-04-08T03:08:16.023Z,61.04
2023-04-08T03:10:43.654Z,61.05
2023-04-08T03:13:11.287Z,60.68
2023-04-08T03:15:38.894Z,60.95
2023-04-08T03:18:06.696Z,61.12
2023-04-08T03:20:34.348Z,60.98
2023-04-08T03:23:02.181Z,60.91
2023-04-08T03:25:31.643Z,60.66
2023-04-08T03:27:59.738Z,60.73
2023-04-08T03:30:27.624Z,60.77
2023-04-08T03:32:55.630Z,60.63
2023-04-08T03:35:23.428Z,60.85
2023-04-08T03:37:51.282Z,61.29
2023-04-08T03:40:19.123Z,61.22
2023-04-08T03:42:48.186Z,61.00
2023-04-08T03:45:15.839Z,61.07
2023-04-08T03:47:43.532Z,61.57
2023-04-08T03:50:11.765Z,61.02
2023-04-08T03:52:39.388Z,60.98
2023-04-08T03:55:07.380Z,61.46
2023-04-08T03:57:35.031Z,60.95
2023-04-08T04:00:04.673Z,61.17
2023-04-08T04:02:32.423Z,61.40
2023-04-08T04:05:00.676Z,61.29
2023-04-08T04:07:28.371Z,61.18
2023-04-08T04:09:57.097Z,61.23
2023-04-08T04:12:24.860Z,61.27
2023-04-08T04:14:52.443Z,60.90
2023-04-08T04:17:21.374Z,61.06
2023-04-08T04:19:48.968Z,61.30
2023-04-08T04:22:16.685Z,61.51
2023-04-08T04:24:48.538Z,61.31
2023-04-08T04:27:17.655Z,61.39
2023-04-08T04:29:45.348Z,61.07
2023-04-08T04:32:12.966Z,61.24
2023-04-08T04:34:42.090Z,61.19
2023-04-08T04:37:09.679Z,61.36
2023-04-08T04:39:37.283Z,61.19
2023-04-08T04:42:04.927Z,61.43
2023-04-08T04:44:32.524Z,61.73
2023-04-08T04:47:00.246Z,61.56
2023-04-08T04:49:27.852Z,61.56
2023-04-08T04:51:56.929Z,61.85
2023-04-08T04:54:24.644Z,61.88
2023-04-08T04:56:52.281Z,61.76
2023-04-08T04:59:19.890Z,61.66
2023-04-08T05:01:47.564Z,61.97
2023-04-08T05:04:15.629Z,61.95
2023-04-08T05:06:43.236Z,61.93
2023-04-08T05:09:12.193Z,62.08
2023-04-08T05:11:39.823Z,62.13
2023-04-08T05:14:07.975Z,62.18
2023-04-08T05:16:35.779Z,61.94
2023-04-08T05:19:03.416Z,61.57
2023-04-08T05:21:31.263Z,62.08
2023-04-08T05:23:58.991Z,62.09
2023-04-08T05:26:27.993Z,61.92
2023-04-08T05:28:55.604Z,62.14
2023-04-08T05:31:23.221Z,62.15
2023-04-08T05:33:50.919Z,62.13
2023-04-08T05:36:18.530Z,62.13
2023-04-08T05:38:46.196Z,61.98
2023-04-08T05:41:13.787Z,62.35
2023-04-08T05:43:42.786Z,62.44
2023-04-08T05:46:11.592Z,62.50
2023-04-08T05:48:39.235Z,62.44
2023-04-08T05:51:06.897Z,62.35
2023-04-08T05:53:34.473Z,62.30
2023-04-08T05:56:02.119Z,62.36
2023-04-08T05:58:29.736Z,62.44
2023-04-08T06:00:58.694Z,62.55
2023-04-08T06:03:26.476Z,62.65
2023-04-08T06:05:54.366Z,62.65
2023-04-08T06:08:22.511Z,63.02
2023-04-08T06:10:51.323Z,62.75
2023-04-08T06:13:20.224Z,62.68
2023-04-08T06:15:48.860Z,62.52
2023-04-08T06:18:17.970Z,62.26
2023-04-08T06:20:46.121Z,62.55
2023-04-08T06:23:14.489Z,62.32
2023-04-08T06:25:42.098Z,62.55
2023-04-08T06:28:09.781Z,62.74
2023-04-08T06:30:37.387Z,62.50
2023-04-08T06:33:05.580Z,62.60
2023-04-08T06:35:34.630Z,62.45
2023-04-08T06:38:02.275Z,62.80
2023-04-08T06:40:30.057Z,62.81
2023-04-08T06:42:57.688Z,62.98
2023-04-08T06:45:26.098Z,63.01
2023-04-08T06:47:56.401Z,62.98
2023-04-08T06:50:24.063Z,62.89
2023-04-08T06:52:53.036Z,63.06
2023-04-08T06:55:20.692Z,62.92
2023-04-08T06:57:48.263Z,63.48
2023-04-08T07:00:16.094Z,64.16
2023-04-08T07:02:43.771Z,64.13
2023-04-08T07:05:11.718Z,64.37
2023-04-08T07:07:39.295Z,64.35
2023-04-08T07:10:10.927Z,64.21
2023-04-08T07:12:38.967Z,64.08
2023-04-08T07:15:07.855Z,63.42
2023-04-08T07:17:35.848Z,63.68
2023-04-08T07:20:04.000Z,63.61
2023-04-08T07:22:31.569Z,63.09
2023-04-08T07:24:59.164Z,62.92
2023-04-08T07:27:28.186Z,62.92
2023-04-08T07:29:56.475Z,62.74
2023-04-08T07:32:24.132Z,62.48
2023-04-08T07:34:51.757Z,61.98
2023-04-08T07:37:19.443Z,61.68
2023-04-08T07:39:47.153Z,61.70
2023-04-08T07:42:14.747Z,61.07
2023-04-08T07:44:43.692Z,61.14
2023-04-08T07:47:11.819Z,61.22
2023-04-08T07:49:39.574Z,61.05
2023-04-08T07:52:07.440Z,60.47
2023-04-08T07:54:35.332Z,60.35
2023-04-08T07:57:03.509Z,60.98
2023-04-08T07:59:31.197Z,59.80
2023-04-08T08:02:00.360Z,59.10
2023-04-08T08:04:28.368Z,58.80
2023-04-08T08:06:56.147Z,58.02
2023-04-08T08:09:23.783Z,57.40
2023-04-08T08:11:51.392Z,57.39
2023-04-08T08:14:19.081Z,56.79
2023-04-08T08:16:47.143Z,56.74
2023-04-08T08:19:16.130Z,56.31
2023-04-08T08:21:43.721Z,56.11
2023-04-08T08:24:11.330Z,55.90
2023-04-08T08:26:39.211Z,55.62
2023-04-08T08:29:08.429Z,55.85
2023-04-08T08:31:36.273Z,55.68
2023-04-08T08:34:04.097Z,55.34
2023-04-08T08:36:34.555Z,55.53
2023-04-08T08:39:02.480Z,55.49
2023-04-08T08:41:34.517Z,55.60
2023-04-08T08:44:03.750Z,55.68
2023-04-08T08:46:31.396Z,55.14
2023-04-08T08:48:59.111Z,55.41
2023-04-08T08:51:28.570Z,55.52
2023-04-08T08:53:57.526Z,55.51
2023-04-08T08:56:25.683Z,55.71
2023-04-08T08:58:53.323Z,55.54
2023-04-08T09:01:34.887Z,55.17
2023-04-08T09:04:18.349Z,55.50
2023-04-08T09:06:47.163Z,55.48
2023-04-08T09:09:16.226Z,55.43
2023-04-08T09:11:45.970Z,55.65
2023-04-08T09:14:24.071Z,55.44
2023-04-08T09:16:52.458Z,55.55
2023-04-08T09:19:20.713Z,55.57
2023-04-08T09:22:06.435Z,55.31
2023-04-08T09:24:37.020Z,55.54
2023-04-08T09:27:05.526Z,55.40
2023-04-08T09:29:36.436Z,55.88
2023-04-08T09:32:06.751Z,55.48
2023-04-08T09:34:34.911Z,55.42
2023-04-08T09:37:02.710Z,55.49
2023-04-08T09:39:30.791Z,55.36
2023-04-08T09:42:01.807Z,55.41
2023-04-08T09:44:31.249Z,55.52
2023-04-08T09:47:07.332Z,55.38
2023-04-08T09:49:39.502Z,55.38
2023-04-08T09:52:09.578Z,55.55
2023-04-08T09:54:45.468Z,55.25
2023-04-08T09:57:18.832Z,55.56
2023-04-08T09:59:53.705Z,55.67
2023-04-08T10:02:30.717Z,55.72
2023-04-08T10:05:01.243Z,55.51
2023-04-08T10:07:28.956Z,55.41
2023-04-08T10:09:58.212Z,55.57
2023-04-08T10:12:27.297Z,55.68
2023-04-08T10:15:28.246Z,55.48
2023-04-08T10:17:57.731Z,55.95
2023-04-08T10:20:45.021Z,55.75
2023-04-08T10:23:14.270Z,55.98
2023-04-08T10:25:43.085Z,56.00
2023-04-08T10:28:27.671Z,55.84
2023-04-08T10:30:56.635Z,55.94
2023-04-08T10:33:26.501Z,55.79
2023-04-08T10:35:55.967Z,55.42
2023-04-08T10:38:23.673Z,55.97
2023-04-08T10:40:51.396Z,55.76
2023-04-08T10:43:19.306Z,55.66
2023-04-08T10:45:51.295Z,55.61
2023-04-08T10:48:22.441Z,55.69
2023-04-08T10:50:56.560Z,55.72
2023-04-08T10:53:28.385Z,55.94
2023-04-08T10:55:56.101Z,55.79
2023-04-08T10:58:24.446Z,56.04
2023-04-08T11:00:53.429Z,55.88
2023-04-08T11:03:21.144Z,55.88
2023-04-08T11:05:50.853Z,56.09
2023-04-08T11:08:20.841Z,55.91
2023-04-08T11:10:49.531Z,56.05
2023-04-08T11:13:17.556Z,55.50
2023-04-08T11:15:45.469Z,55.88
2023-04-08T11:18:14.627Z,55.73
2023-04-08T11:20:42.289Z,55.79
2023-04-08T11:23:14.064Z,55.78
2023-04-08T11:25:42.614Z,55.77
2023-04-08T11:28:10.512Z,55.56
2023-04-08T11:30:39.514Z,55.56
2023-04-08T11:33:07.964Z,55.89
2023-04-08T11:35:41.523Z,55.88
2023-04-08T11:38:09.619Z,55.95
2023-04-08T11:40:37.305Z,55.76
2023-04-08T11:43:10.752Z,55.99
2023-04-08T11:45:40.252Z,55.72
2023-04-08T11:48:11.715Z,55.89
2023-04-08T11:50:41.732Z,56.02
2023-04-08T11:53:18.396Z,56.13
2023-04-08T11:55:46.429Z,55.70
2023-04-08T11:58:14.054Z,55.98
2023-04-08T12:00:42.660Z,56.04
2023-04-08T12:03:11.071Z,56.09
2023-04-08T12:05:40.641Z,55.84
2023-04-08T12:08:08.308Z,56.15
2023-04-08T12:10:36.087Z,55.93
2023-04-08T12:13:03.702Z,55.87
2023-04-08T12:15:31.458Z,55.87
2023-04-08T12:17:59.157Z,55.60
2023-04-08T12:20:26.786Z,55.95
2023-04-08T12:22:55.727Z,55.60
2023-04-08T12:25:23.394Z,56.13
2023-04-08T12:27:50.996Z,56.05
2023-04-08T12:30:18.610Z,55.88
2023-04-08T12:32:47.654Z,55.82
2023-04-08T12:35:15.390Z,55.63
2023-04-08T12:37:43.031Z,55.88
2023-04-08T12:40:12.429Z,56.21
2023-04-08T12:42:40.052Z,55.95
2023-04-08T12:45:09.068Z,56.10
2023-04-08T12:47:36.698Z,55.90
2023-04-08T12:50:04.964Z,55.86
2023-04-08T12:52:33.235Z,55.97
2023-04-08T12:55:01.091Z,55.97
2023-04-08T12:57:31.956Z,56.24
2023-04-08T12:59:59.608Z,55.85
2023-04-08T13:02:27.492Z,55.82
2023-04-08T13:04:55.312Z,56.12
2023-04-08T13:07:23.687Z,55.77
2023-04-08T13:09:51.346Z,55.86
2023-04-08T13:12:18.923Z,56.23
2023-04-08T13:14:47.903Z,55.89
2023-04-08T13:17:15.684Z,56.26
2023-04-08T13:19:43.270Z,56.28
2023-04-08T13:22:10.916Z,56.11
2023-04-08T13:24:38.622Z,56.03
2023-04-08T13:27:06.327Z,56.15
2023-04-08T13:29:33.957Z,55.84
2023-04-08T13:32:02.999Z,56.05
2023-04-08T13:34:30.989Z,56.21
2023-04-08T13:36:58.607Z,56.31
2023-04-08T13:39:26.414Z,56.01
2023-04-08T13:41:54.162Z,56.26
2023-04-08T13:44:21.805Z,56.25
2023-04-08T13:46:49.392Z,56.63
2023-04-08T13:49:18.427Z,56.39
2023-04-08T13:51:46.102Z,56.26
2023-04-08T13:54:13.725Z,56.41
2023-04-08T13:56:41.399Z,56.18
2023-04-08T13:59:10.277Z,56.28
2023-04-08T14:01:38.188Z,56.27
2023-04-08T14:04:05.891Z,56.29
2023-04-08T14:06:36.043Z,56.34
2023-04-08T14:09:03.937Z,56.31
2023-04-08T14:11:31.592Z,56.59
2023-04-08T14:13:59.255Z,56.38
2023-04-08T14:16:27.597Z,56.70
2023-04-08T14:18:55.226Z,56.41
2023-04-08T14:21:22.792Z,56.25
2023-04-08T14:23:52.655Z,56.18
2023-04-08T14:26:20.295Z,56.26
2023-04-08T14:28:48.858Z,56.35
2023-04-08T14:31:16.873Z,56.31
2023-04-08T14:33:44.515Z,56.16
2023-04-08T14:36:12.223Z,56.31
2023-04-08T14:38:40.156Z,55.97
2023-04-08T14:41:09.113Z,56.10
2023-04-08T14:43:36.777Z,56.38
2023-04-08T14:46:04.524Z,56.11
2023-04-08T14:48:32.192Z,56.26
2023-04-08T14:51:00.027Z,56.39
2023-04-08T14:53:27.682Z,56.48
2023-04-08T14:55:55.296Z,56.31
2023-04-08T14:58:24.363Z,56.40
2023-04-08T15:00:52.922Z,56.18
2023-04-08T15:03:21.083Z,56.35
2023-04-08T15:05:48.826Z,56.56
2023-04-08T15:08:16.522Z,56.50
2023-04-08T15:10:44.120Z,56.85
2023-04-08T15:13:11.704Z,56.47
2023-04-08T15:15:40.748Z,56.49
2023-04-08T15:18:08.497Z,56.54
2023-04-08T15:20:36.337Z,56.45
2023-04-08T15:23:03.940Z,56.55
2023-04-08T15:25:31.566Z,56.55
2023-04-08T15:27:59.155Z,56.63
2023-04-08T15:30:27.606Z,56.33
2023-04-08T15:32:57.567Z,56.61
2023-04-08T15:35:25.240Z,56.91
2023-04-08T15:37:52.824Z,56.87
2023-04-08T15:40:20.537Z,56.81
2023-04-08T15:42:48.130Z,56.54
2023-04-08T15:45:15.919Z,56.14
2023-04-08T15:47:43.927Z,56.83
2023-04-08T15:50:14.801Z,56.78
2023-04-08T15:52:42.550Z,56.53
2023-04-08T15:55:10.636Z,56.72
2023-04-08T15:57:38.545Z,56.42
2023-04-08T16:00:10.823Z,56.74
2023-04-08T16:02:38.775Z,56.61
2023-04-08T16:05:07.389Z,56.51
2023-04-08T16:07:37.368Z,56.62
2023-04-08T16:10:05.687Z,56.84
2023-04-08T16:12:33.358Z,56.50
2023-04-08T16:15:01.151Z,56.63
2023-04-08T16:17:28.746Z,56.94
2023-04-08T16:19:57.448Z,56.66
2023-04-08T16:22:25.173Z,56.88
2023-04-08T16:24:54.195Z,56.54
2023-04-08T16:27:21.838Z,57.03
2023-04-08T16:29:49.858Z,56.49
2023-04-08T16:32:17.477Z,56.50
2023-04-08T16:34:45.161Z,56.64
2023-04-08T16:37:14.819Z,56.81
2023-04-08T16:39:42.846Z,56.73
2023-04-08T16:42:12.124Z,56.88
2023-04-08T16:44:39.712Z,56.84
2023-04-08T16:47:07.340Z,57.02
2023-04-08T16:49:34.958Z,57.45
2023-04-08T16:52:02.661Z,57.46
2023-04-08T16:54:30.310Z,57.40
2023-04-08T16:56:58.108Z,57.44
2023-04-08T16:59:29.122Z,57.42
2023-04-08T17:01:57.243Z,57.47
2023-04-08T17:04:24.917Z,57.38
2023-04-08T17:06:53.126Z,57.61
2023-04-08T17:09:21.178Z,57.21
2023-04-08T17:11:48.880Z,57.58
2023-04-08T17:14:16.510Z,57.34
2023-04-08T17:16:45.515Z,57.41
2023-04-08T17:19:14.297Z,56.96
2023-04-08T17:21:42.683Z,57.23
2023-04-08T17:24:10.236Z,57.30
2023-04-08T17:26:38.015Z,57.36
2023-04-08T17:29:05.934Z,57.55
2023-04-08T17:31:34.030Z,56.87
2023-04-08T17:34:03.111Z,57.13
2023-04-08T17:36:31.315Z,57.13
2023-04-08T17:38:58.937Z,57.11
2023-04-08T17:41:38.846Z,57.16
2023-04-08T17:44:07.734Z,57.01
2023-04-08T17:46:35.416Z,57.32
2023-04-08T17:49:04.401Z,57.17
2023-04-08T17:51:32.925Z,57.37
2023-04-08T17:54:00.702Z,56.92
2023-04-08T17:56:28.933Z,56.79
2023-04-08T17:58:56.581Z,57.06
2023-04-08T18:01:24.248Z,56.91
2023-04-08T18:03:52.175Z,57.13
2023-04-08T18:06:21.337Z,57.04
2023-04-08T18:08:48.974Z,57.03
2023-04-08T18:11:16.643Z,57.44
2023-04-08T18:13:44.325Z,57.13
2023-04-08T18:16:17.029Z,57.14
2023-04-08T18:18:44.690Z,57.10
2023-04-08T18:21:12.270Z,57.06
2023-04-08T18:23:41.214Z,57.22
2023-04-08T18:26:09.295Z,57.09
2023-04-08T18:28:36.910Z,57.31
2023-04-08T18:31:04.651Z,56.95
2023-04-08T18:33:32.318Z,58.92
2023-04-08T18:36:07.103Z,58.52
2023-04-08T18:38:36.108Z,58.13
2023-04-08T18:41:05.784Z,58.28
2023-04-08T18:43:33.726Z,58.24
2023-04-08T18:46:01.618Z,58.49
2023-04-08T18:48:29.599Z,58.45
2023-04-08T18:50:57.531Z,58.42
2023-04-08T18:53:25.226Z,58.33
2023-04-08T18:55:52.897Z,58.42
2023-04-08T18:58:21.835Z,58.33
2023-04-08T19:00:49.451Z,58.34
2023-04-08T19:03:17.301Z,58.49
2023-04-08T19:05:44.977Z,58.17
2023-04-08T19:08:12.571Z,58.24
2023-04-08T19:10:40.371Z,57.94
2023-04-08T19:13:08.092Z,58.19
2023-04-08T19:15:37.034Z,57.96
2023-04-08T19:18:05.605Z,58.13
2023-04-08T19:20:33.669Z,57.89
2023-04-08T19:23:01.257Z,58.05
2023-04-08T19:25:28.877Z,58.23
2023-04-08T19:27:56.797Z,57.85
2023-04-08T19:30:24.461Z,58.10
2023-04-08T19:32:53.747Z,58.39
2023-04-08T19:35:21.395Z,58.44
2023-04-08T19:37:48.981Z,58.33
2023-04-08T19:40:16.648Z,58.17
2023-04-08T19:42:45.272Z,58.30
2023-04-08T19:45:12.885Z,58.50
2023-04-08T19:47:42.318Z,58.40
2023-04-08T19:50:12.840Z,58.47
2023-04-08T19:52:40.465Z,58.59
2023-04-08T19:55:10.107Z,58.64
2023-04-08T19:57:37.861Z,58.43
2023-04-08T20:00:06.350Z,58.48
2023-04-08T20:02:34.288Z,58.60
2023-04-08T20:05:02.324Z,58.82
2023-04-08T20:07:31.347Z,58.77
2023-04-08T20:09:59.000Z,58.86
2023-04-08T20:12:26.892Z,58.86
2023-04-08T20:14:54.472Z,58.82
2023-04-08T20:17:22.432Z,58.80
2023-04-08T20:19:50.042Z,59.22
2023-04-08T20:22:17.683Z,58.69
2023-04-08T20:24:47.759Z,58.77
2023-04-08T20:27:16.540Z,58.91
2023-04-08T20:29:44.168Z,58.84
2023-04-08T20:32:12.595Z,58.83
2023-04-08T20:34:41.533Z,59.00
2023-04-08T20:37:09.202Z,58.93
2023-04-08T20:39:36.810Z,58.84
2023-04-08T20:42:06.618Z,58.93
2023-04-08T20:44:34.245Z,58.77
2023-04-08T20:47:02.075Z,58.95
2023-04-08T20:49:29.786Z,58.81
2023-04-08T20:51:58.213Z,58.90
2023-04-08T20:54:26.427Z,58.70
2023-04-08T20:56:54.001Z,58.83
2023-04-08T20:59:23.018Z,58.71
2023-04-08T21:01:51.018Z,58.56
2023-04-08T21:04:18.673Z,58.41
2023-04-08T21:06:46.312Z,58.67
2023-04-08T21:09:14.887Z,58.91
2023-04-08T21:11:42.515Z,58.99
2023-04-08T21:14:10.221Z,58.69
2023-04-08T21:16:39.226Z,58.88
2023-04-08T21:19:06.955Z,58.84
2023-04-08T21:21:34.647Z,59.04
2023-04-08T21:24:02.258Z,58.70
2023-04-08T21:26:29.895Z,58.75
2023-04-08T21:28:57.548Z,58.94
2023-04-08T21:31:25.420Z,59.29
2023-04-08T21:33:54.424Z,59.09
2023-04-08T21:36:22.026Z,59.14
2023-04-08T21:38:49.820Z,59.09
2023-04-08T21:41:18.145Z,59.12
2023-04-08T21:43:45.802Z,58.89
2023-04-08T21:46:13.464Z,59.08
2023-04-08T21:48:41.065Z,59.04
2023-04-08T21:51:09.991Z,59.10
2023-04-08T21:53:39.075Z,59.02
2023-04-08T21:56:08.026Z,59.10
2023-04-08T21:58:36.051Z,58.92
2023-04-08T22:01:04.284Z,59.29
2023-04-08T22:03:32.044Z,59.51
2023-04-08T22:05:59.737Z,59.16
2023-04-08T22:08:28.738Z,59.01
2023-04-08T22:10:56.499Z,59.17
2023-04-08T22:13:24.130Z,59.00
2023-04-08T22:15:51.696Z,58.98
2023-04-08T22:18:19.456Z,59.00
2023-04-08T22:20:47.057Z,58.99
2023-04-08T22:23:14.656Z,59.16
2023-04-08T22:25:43.623Z,58.68
2023-04-08T22:28:11.295Z,59.01
2023-04-08T22:30:38.903Z,59.08
2023-04-08T22:33:06.551Z,58.72
2023-04-08T22:35:34.246Z,58.82
2023-04-08T22:38:02.005Z,58.63
2023-04-08T22:40:29.651Z,58.68
2023-04-08T22:42:58.584Z,58.62
2023-04-08T22:45:26.205Z,58.80
2023-04-08T22:47:54.495Z,58.78
2023-04-08T22:50:23.074Z,58.52
2023-04-08T22:52:50.805Z,58.81
2023-04-08T22:55:18.553Z,58.48
2023-04-08T22:57:46.340Z,58.67
2023-04-08T23:00:15.993Z,58.92
2023-04-08T23:02:43.756Z,58.89
2023-04-08T23:05:11.553Z,58.72
2023-04-08T23:07:39.179Z,58.86
2023-04-08T23:10:08.193Z,58.91
2023-04-08T23:12:35.885Z,58.62
2023-04-08T23:15:03.546Z,58.90
2023-04-08T23:17:32.553Z,58.83
2023-04-08T23:20:00.187Z,58.61
2023-04-08T23:22:27.792Z,59.12
2023-04-08T23:24:55.404Z,58.80
2023-04-08T23:27:22.984Z,58.50
2023-04-08T23:29:50.597Z,58.94
2023-04-08T23:32:18.286Z,58.82
2023-04-08T23:34:47.262Z,58.78
2023-04-08T23:37:14.870Z,58.83
2023-04-08T23:39:42.528Z,58.70
2023-04-08T23:42:10.142Z,58.58
2023-04-08T23:44:37.752Z,58.49
2023-04-08T23:47:05.397Z,58.80
2023-04-08T23:49:33.031Z,58.72
2023-04-08T23:52:01.950Z,58.83
2023-04-08T23:54:32.730Z,58.93
2023-04-08T23:57:01.043Z,58.66
2023-04-08T23:59:28.826Z,58.53
